sensor_id;sensor_type;location;lat;lon;timestamp;temperature;humidity
47616;DHT22;69146;52.266;7.000;2023-11-19T00:00:19;10.30;99.90
47616;DHT22;69146;52.266;7.000;2023-11-19T00:03:03;10.30;99.90
47616;DHT22;69146;52.266;7.000;2023-11-19T00:05:48;10.30;99.90
47616;DHT22;69146;52.266;7.000;2023-11-19T00:08:34;10.30;99.90
47616;DHT22;69146;52.266;7.000;2023-11-19T00:11:18;10.30;99.90
47616;DHT22;69146;52.266;7.000;2023-11-19T00:14:03;10.30;99.90
47616;DHT22;69146;52.266;7.000;2023-11-19T00:16:48;10.30;99.90
47616;DHT22;69146;52.266;7.000;2023-11-19T00:19:35;10.40;99.90
47616;DHT22;69146;52.266;7.000;2023-11-19T00:22:20;10.40;99.90
47616;DHT22;69146;52.266;7.000;2023-11-19T00:25:07;10.50;99.90
47616;DHT22;69146;52.266;7.000;2023-11-19T00:27:52;10.50;99.90
47616;DHT22;69146;52.266;7.000;2023-11-19T00:30:37;10.50;99.90
47616;DHT22;69146;52.266;7.000;2023-11-19T00:33:22;10.50;99.90
47616;DHT22;69146;52.266;7.000;2023-11-19T00:36:07;10.60;99.90
47616;DHT22;69146;52.266;7.000;2023-11-19T00:38:51;10.60;99.90
47616;DHT22;69146;52.266;7.000;2023-11-19T00:41:40;10.60;99.90
47616;DHT22;69146;52.266;7.000;2023-11-19T00:44:24;10.70;99.90
47616;DHT22;69146;52.266;7.000;2023-11-19T00:47:09;10.70;99.90
47616;DHT22;69146;52.266;7.000;2023-11-19T00:49:54;11.20;99.90
47616;DHT22;69146;52.266;7.000;2023-11-19T00:52:38;10.90;99.90
47616;DHT22;69146;52.266;7.000;2023-11-19T00:55:22;10.90;99.90
47616;DHT22;69146;52.266;7.000;2023-11-19T00:58:10;11.00;99.90
47616;DHT22;69146;52.266;7.000;2023-11-19T01:00:55;11.00;99.90
47616;DHT22;69146;52.266;7.000;2023-11-19T01:03:41;11.00;99.90
47616;DHT22;69146;52.266;7.000;2023-11-19T01:06:28;11.10;99.90
47616;DHT22;69146;52.266;7.000;2023-11-19T01:09:15;11.10;99.90
47616;DHT22;69146;52.266;7.000;2023-11-19T01:11:59;11.20;99.90
47616;DHT22;69146;52.266;7.000;2023-11-19T01:14:46;11.10;99.90
47616;DHT22;69146;52.266;7.000;2023-11-19T01:17:30;11.20;99.90
47616;DHT22;69146;52.266;7.000;2023-11-19T01:20:17;11.20;99.90
47616;DHT22;69146;52.266;7.000;2023-11-19T01:23:01;11.20;99.90
47616;DHT22;69146;52.266;7.000;2023-11-19T01:25:45;11.20;99.90
47616;DHT22;69146;52.266;7.000;2023-11-19T01:28:32;11.30;99.90
47616;DHT22;69146;52.266;7.000;2023-11-19T01:31:18;11.30;99.90
47616;DHT22;69146;52.266;7.000;2023-11-19T01:34:03;11.30;99.90
47616;DHT22;69146;52.266;7.000;2023-11-19T01:36:47;11.30;99.90
47616;DHT22;69146;52.266;7.000;2023-11-19T01:39:32;11.30;99.90
47616;DHT22;69146;52.266;7.000;2023-11-19T01:42:17;11.40;99.90
47616;DHT22;69146;52.266;7.000;2023-11-19T01:45:02;11.40;99.90
47616;DHT22;69146;52.266;7.000;2023-11-19T01:47:48;11.40;99.90
47616;DHT22;69146;52.266;7.000;2023-11-19T01:50:32;11.40;99.90
47616;DHT22;69146;52.266;7.000;2023-11-19T01:53:18;11.40;99.90
47616;DHT22;69146;52.266;7.000;2023-11-19T01:56:02;11.40;99.90
47616;DHT22;69146;52.266;7.000;2023-11-19T01:58:48;11.40;99.90
47616;DHT22;69146;52.266;7.000;2023-11-19T02:01:33;11.40;99.90
47616;DHT22;69146;52.266;7.000;2023-11-19T02:04:21;11.40;99.90
47616;DHT22;69146;52.266;7.000;2023-11-19T02:07:07;11.40;99.90
47616;DHT22;69146;52.266;7.000;2023-11-19T02:09:52;11.50;99.90
47616;DHT22;69146;52.266;7.000;2023-11-19T02:12:36;11.50;99.90
47616;DHT22;69146;52.266;7.000;2023-11-19T02:15:20;11.50;99.90
47616;DHT22;69146;52.266;7.000;2023-11-19T02:18:18;11.50;99.90
47616;DHT22;69146;52.266;7.000;2023-11-19T02:21:05;11.50;99.90
47616;DHT22;69146;52.266;7.000;2023-11-19T02:23:50;11.60;99.90
47616;DHT22;69146;52.266;7.000;2023-11-19T02:26:39;11.60;99.90
47616;DHT22;69146;52.266;7.000;2023-11-19T02:29:25;11.60;99.90
47616;DHT22;69146;52.266;7.000;2023-11-19T02:32:10;11.60;99.90
47616;DHT22;69146;52.266;7.000;2023-11-19T02:34:56;11.60;99.90
47616;DHT22;69146;52.266;7.000;2023-11-19T02:37:42;11.60;99.90
47616;DHT22;69146;52.266;7.000;2023-11-19T02:40:26;11.60;99.90
47616;DHT22;69146;52.266;7.000;2023-11-19T02:43:11;11.60;99.90
47616;DHT22;69146;52.266;7.000;2023-11-19T02:45:57;11.60;99.90
47616;DHT22;69146;52.266;7.000;2023-11-19T02:48:42;11.60;99.90
47616;DHT22;69146;52.266;7.000;2023-11-19T02:51:28;11.60;99.90
47616;DHT22;69146;52.266;7.000;2023-11-19T02:54:14;11.60;99.90
47616;DHT22;69146;52.266;7.000;2023-11-19T02:56:59;11.70;99.90
47616;DHT22;69146;52.266;7.000;2023-11-19T02:59:46;11.70;99.90
47616;DHT22;69146;52.266;7.000;2023-11-19T03:02:31;11.70;99.90
47616;DHT22;69146;52.266;7.000;2023-11-19T03:05:28;11.70;99.90
47616;DHT22;69146;52.266;7.000;2023-11-19T03:08:15;11.70;99.90
47616;DHT22;69146;52.266;7.000;2023-11-19T03:11:01;11.70;99.90
47616;DHT22;69146;52.266;7.000;2023-11-19T03:13:46;11.70;99.90
47616;DHT22;69146;52.266;7.000;2023-11-19T03:16:32;11.70;99.90
47616;DHT22;69146;52.266;7.000;2023-11-19T03:19:18;11.70;99.90
47616;DHT22;69146;52.266;7.000;2023-11-19T03:22:04;11.80;99.90
47616;DHT22;69146;52.266;7.000;2023-11-19T03:24:50;11.70;99.90
47616;DHT22;69146;52.266;7.000;2023-11-19T03:27:35;11.70;99.90
47616;DHT22;69146;52.266;7.000;2023-11-19T03:30:20;11.70;99.90
47616;DHT22;69146;52.266;7.000;2023-11-19T03:33:05;11.70;99.90
47616;DHT22;69146;52.266;7.000;2023-11-19T03:35:51;11.60;99.90
47616;DHT22;69146;52.266;7.000;2023-11-19T03:38:36;11.60;99.90
47616;DHT22;69146;52.266;7.000;2023-11-19T03:41:21;11.50;99.90
47616;DHT22;69146;52.266;7.000;2023-11-19T03:44:06;11.50;99.90
47616;DHT22;69146;52.266;7.000;2023-11-19T03:46:50;11.60;99.90
47616;DHT22;69146;52.266;7.000;2023-11-19T03:49:35;11.60;99.90
47616;DHT22;69146;52.266;7.000;2023-11-19T03:52:21;11.60;99.90
47616;DHT22;69146;52.266;7.000;2023-11-19T03:55:07;11.50;99.90
47616;DHT22;69146;52.266;7.000;2023-11-19T03:57:52;11.50;99.90
47616;DHT22;69146;52.266;7.000;2023-11-19T04:00:37;11.40;99.90
47616;DHT22;69146;52.266;7.000;2023-11-19T04:03:21;11.40;99.90
47616;DHT22;69146;52.266;7.000;2023-11-19T04:06:06;11.50;99.90
47616;DHT22;69146;52.266;7.000;2023-11-19T04:08:52;11.40;99.90
47616;DHT22;69146;52.266;7.000;2023-11-19T04:11:37;11.40;99.90
47616;DHT22;69146;52.266;7.000;2023-11-19T04:14:21;11.40;99.90
47616;DHT22;69146;52.266;7.000;2023-11-19T04:17:06;11.40;99.90
47616;DHT22;69146;52.266;7.000;2023-11-19T04:19:50;11.40;99.90
47616;DHT22;69146;52.266;7.000;2023-11-19T04:22:34;11.40;99.90
47616;DHT22;69146;52.266;7.000;2023-11-19T04:25:22;11.40;99.90
47616;DHT22;69146;52.266;7.000;2023-11-19T04:28:06;11.40;99.90
47616;DHT22;69146;52.266;7.000;2023-11-19T04:30:51;11.30;99.90
47616;DHT22;69146;52.266;7.000;2023-11-19T04:33:36;11.30;99.90
47616;DHT22;69146;52.266;7.000;2023-11-19T04:36:20;11.20;99.90
47616;DHT22;69146;52.266;7.000;2023-11-19T04:39:08;11.20;99.90
47616;DHT22;69146;52.266;7.000;2023-11-19T04:41:56;11.10;99.90
47616;DHT22;69146;52.266;7.000;2023-11-19T04:44:40;11.10;99.90
47616;DHT22;69146;52.266;7.000;2023-11-19T04:47:29;11.00;99.90
47616;DHT22;69146;52.266;7.000;2023-11-19T04:50:13;11.00;99.90
47616;DHT22;69146;52.266;7.000;2023-11-19T04:52:58;11.00;99.90
47616;DHT22;69146;52.266;7.000;2023-11-19T04:55:42;11.00;99.90
47616;DHT22;69146;52.266;7.000;2023-11-19T04:58:30;11.00;99.90
47616;DHT22;69146;52.266;7.000;2023-11-19T05:01:15;10.90;99.90
47616;DHT22;69146;52.266;7.000;2023-11-19T05:04:01;10.90;99.90
47616;DHT22;69146;52.266;7.000;2023-11-19T05:06:45;10.90;99.90
47616;DHT22;69146;52.266;7.000;2023-11-19T05:09:30;10.90;99.90
47616;DHT22;69146;52.266;7.000;2023-11-19T05:12:15;10.80;99.90
47616;DHT22;69146;52.266;7.000;2023-11-19T05:15:00;10.90;99.90
47616;DHT22;69146;52.266;7.000;2023-11-19T05:17:45;10.90;99.90
47616;DHT22;69146;52.266;7.000;2023-11-19T05:20:30;10.90;99.90
47616;DHT22;69146;52.266;7.000;2023-11-19T05:23:14;10.90;99.90
47616;DHT22;69146;52.266;7.000;2023-11-19T05:25:58;10.90;99.90
47616;DHT22;69146;52.266;7.000;2023-11-19T05:28:43;11.00;99.90
47616;DHT22;69146;52.266;7.000;2023-11-19T05:31:29;11.00;99.90
47616;DHT22;69146;52.266;7.000;2023-11-19T05:34:13;11.00;99.90
47616;DHT22;69146;52.266;7.000;2023-11-19T05:36:59;10.90;99.90
47616;DHT22;69146;52.266;7.000;2023-11-19T05:39:46;11.00;99.90
47616;DHT22;69146;52.266;7.000;2023-11-19T05:42:30;11.00;99.90
47616;DHT22;69146;52.266;7.000;2023-11-19T05:45:14;11.00;99.90
47616;DHT22;69146;52.266;7.000;2023-11-19T05:48:01;11.00;99.90
47616;DHT22;69146;52.266;7.000;2023-11-19T05:50:48;11.00;99.90
47616;DHT22;69146;52.266;7.000;2023-11-19T05:53:35;11.00;99.90
47616;DHT22;69146;52.266;7.000;2023-11-19T05:56:19;11.00;99.90
47616;DHT22;69146;52.266;7.000;2023-11-19T05:59:06;11.00;99.90
47616;DHT22;69146;52.266;7.000;2023-11-19T06:02:01;11.10;99.90
47616;DHT22;69146;52.266;7.000;2023-11-19T06:04:49;11.10;99.90
47616;DHT22;69146;52.266;7.000;2023-11-19T06:07:34;11.00;99.90
47616;DHT22;69146;52.266;7.000;2023-11-19T06:10:20;11.00;99.90
47616;DHT22;69146;52.266;7.000;2023-11-19T06:13:05;11.00;99.90
47616;DHT22;69146;52.266;7.000;2023-11-19T06:15:49;11.00;99.90
47616;DHT22;69146;52.266;7.000;2023-11-19T06:18:36;11.00;99.90
47616;DHT22;69146;52.266;7.000;2023-11-19T06:21:21;11.00;99.90
47616;DHT22;69146;52.266;7.000;2023-11-19T06:24:06;11.00;99.90
47616;DHT22;69146;52.266;7.000;2023-11-19T06:26:52;11.10;99.90
47616;DHT22;69146;52.266;7.000;2023-11-19T06:29:37;11.00;99.90
47616;DHT22;69146;52.266;7.000;2023-11-19T06:32:22;10.90;99.90
47616;DHT22;69146;52.266;7.000;2023-11-19T06:35:07;10.90;99.90
47616;DHT22;69146;52.266;7.000;2023-11-19T06:37:53;10.90;99.90
47616;DHT22;69146;52.266;7.000;2023-11-19T06:40:37;10.90;99.90
47616;DHT22;69146;52.266;7.000;2023-11-19T06:43:22;10.90;99.90
47616;DHT22;69146;52.266;7.000;2023-11-19T06:46:14;11.00;99.90
47616;DHT22;69146;52.266;7.000;2023-11-19T06:48:58;10.90;99.90
47616;DHT22;69146;52.266;7.000;2023-11-19T06:51:44;10.80;99.90
47616;DHT22;69146;52.266;7.000;2023-11-19T06:57:39;10.80;99.90
47616;DHT22;69146;52.266;7.000;2023-11-19T07:00:24;10.80;99.90
47616;DHT22;69146;52.266;7.000;2023-11-19T07:03:08;10.90;99.90
47616;DHT22;69146;52.266;7.000;2023-11-19T07:05:54;10.80;99.90
47616;DHT22;69146;52.266;7.000;2023-11-19T07:08:41;10.80;99.90
47616;DHT22;69146;52.266;7.000;2023-11-19T07:11:25;10.90;99.90
47616;DHT22;69146;52.266;7.000;2023-11-19T07:14:11;10.80;99.90
47616;DHT22;69146;52.266;7.000;2023-11-19T07:16:55;10.90;99.90
47616;DHT22;69146;52.266;7.000;2023-11-19T07:19:40;10.80;99.90
47616;DHT22;69146;52.266;7.000;2023-11-19T07:22:25;10.80;99.90
47616;DHT22;69146;52.266;7.000;2023-11-19T07:25:10;10.80;99.90
47616;DHT22;69146;52.266;7.000;2023-11-19T07:27:54;10.80;99.90
47616;DHT22;69146;52.266;7.000;2023-11-19T07:30:40;10.70;99.90
47616;DHT22;69146;52.266;7.000;2023-11-19T07:33:24;10.70;99.90
47616;DHT22;69146;52.266;7.000;2023-11-19T07:36:09;10.70;99.90
47616;DHT22;69146;52.266;7.000;2023-11-19T07:38:53;10.80;99.90
47616;DHT22;69146;52.266;7.000;2023-11-19T07:41:40;10.80;99.90
47616;DHT22;69146;52.266;7.000;2023-11-19T07:44:24;10.80;99.90
47616;DHT22;69146;52.266;7.000;2023-11-19T07:47:10;10.90;99.90
47616;DHT22;69146;52.266;7.000;2023-11-19T07:49:54;11.00;99.90
47616;DHT22;69146;52.266;7.000;2023-11-19T07:52:39;11.00;99.90
47616;DHT22;69146;52.266;7.000;2023-11-19T07:55:23;11.00;99.90
47616;DHT22;69146;52.266;7.000;2023-11-19T07:58:09;11.00;99.90
47616;DHT22;69146;52.266;7.000;2023-11-19T08:00:53;11.00;99.90
47616;DHT22;69146;52.266;7.000;2023-11-19T08:03:39;11.10;99.90
47616;DHT22;69146;52.266;7.000;2023-11-19T08:06:24;11.10;99.90
47616;DHT22;69146;52.266;7.000;2023-11-19T08:09:08;11.10;99.90
47616;DHT22;69146;52.266;7.000;2023-11-19T08:11:57;11.20;99.90
47616;DHT22;69146;52.266;7.000;2023-11-19T08:14:42;11.20;99.90
47616;DHT22;69146;52.266;7.000;2023-11-19T08:17:27;11.20;99.90
47616;DHT22;69146;52.266;7.000;2023-11-19T08:20:12;11.20;99.90
47616;DHT22;69146;52.266;7.000;2023-11-19T08:22:57;11.30;99.90
47616;DHT22;69146;52.266;7.000;2023-11-19T08:25:41;11.20;99.90
47616;DHT22;69146;52.266;7.000;2023-11-19T08:28:26;11.10;99.90
47616;DHT22;69146;52.266;7.000;2023-11-19T08:31:10;11.20;99.90
47616;DHT22;69146;52.266;7.000;2023-11-19T08:33:56;11.30;99.90
47616;DHT22;69146;52.266;7.000;2023-11-19T08:36:42;11.30;99.90
47616;DHT22;69146;52.266;7.000;2023-11-19T08:39:26;11.40;99.90
47616;DHT22;69146;52.266;7.000;2023-11-19T08:42:10;11.40;99.90
47616;DHT22;69146;52.266;7.000;2023-11-19T08:44:55;11.50;99.90
47616;DHT22;69146;52.266;7.000;2023-11-19T08:47:39;11.50;99.90
47616;DHT22;69146;52.266;7.000;2023-11-19T08:50:24;11.60;99.90
47616;DHT22;69146;52.266;7.000;2023-11-19T08:53:10;11.60;99.90
47616;DHT22;69146;52.266;7.000;2023-11-19T08:55:56;11.70;99.90
47616;DHT22;69146;52.266;7.000;2023-11-19T08:58:40;11.70;99.90
47616;DHT22;69146;52.266;7.000;2023-11-19T09:01:25;11.70;99.90
47616;DHT22;69146;52.266;7.000;2023-11-19T09:04:10;11.70;99.90
47616;DHT22;69146;52.266;7.000;2023-11-19T09:06:57;11.70;99.90
47616;DHT22;69146;52.266;7.000;2023-11-19T09:09:43;11.70;99.90
47616;DHT22;69146;52.266;7.000;2023-11-19T09:12:27;11.70;99.90
47616;DHT22;69146;52.266;7.000;2023-11-19T09:15:11;11.70;99.90
47616;DHT22;69146;52.266;7.000;2023-11-19T09:17:56;11.70;99.90
47616;DHT22;69146;52.266;7.000;2023-11-19T09:20:41;11.60;99.90
47616;DHT22;69146;52.266;7.000;2023-11-19T09:23:25;11.70;99.90
47616;DHT22;69146;52.266;7.000;2023-11-19T09:26:13;11.80;99.90
47616;DHT22;69146;52.266;7.000;2023-11-19T09:28:58;11.90;99.90
47616;DHT22;69146;52.266;7.000;2023-11-19T09:31:42;11.90;99.90
47616;DHT22;69146;52.266;7.000;2023-11-19T09:34:27;12.00;99.90
47616;DHT22;69146;52.266;7.000;2023-11-19T09:37:12;12.00;99.90
47616;DHT22;69146;52.266;7.000;2023-11-19T09:39:56;12.10;99.90
47616;DHT22;69146;52.266;7.000;2023-11-19T09:42:43;12.00;99.90
47616;DHT22;69146;52.266;7.000;2023-11-19T09:45:31;12.00;99.90
47616;DHT22;69146;52.266;7.000;2023-11-19T09:48:17;12.00;99.90
47616;DHT22;69146;52.266;7.000;2023-11-19T09:51:02;11.90;99.90
47616;DHT22;69146;52.266;7.000;2023-11-19T09:53:48;12.00;99.90
47616;DHT22;69146;52.266;7.000;2023-11-19T09:56:34;12.00;99.90
47616;DHT22;69146;52.266;7.000;2023-11-19T09:59:21;12.00;99.90
47616;DHT22;69146;52.266;7.000;2023-11-19T10:02:05;12.00;99.90
47616;DHT22;69146;52.266;7.000;2023-11-19T10:04:50;12.00;99.90
47616;DHT22;69146;52.266;7.000;2023-11-19T10:07:35;12.00;99.90
47616;DHT22;69146;52.266;7.000;2023-11-19T10:10:20;12.00;99.90
47616;DHT22;69146;52.266;7.000;2023-11-19T10:13:04;12.00;99.90
47616;DHT22;69146;52.266;7.000;2023-11-19T10:15:50;12.00;99.90
47616;DHT22;69146;52.266;7.000;2023-11-19T10:18:34;12.00;99.90
47616;DHT22;69146;52.266;7.000;2023-11-19T10:21:22;12.00;99.90
47616;DHT22;69146;52.266;7.000;2023-11-19T10:24:07;12.00;99.90
47616;DHT22;69146;52.266;7.000;2023-11-19T10:26:52;11.90;99.90
47616;DHT22;69146;52.266;7.000;2023-11-19T10:29:36;12.00;99.90
47616;DHT22;69146;52.266;7.000;2023-11-19T10:32:23;12.00;99.90
47616;DHT22;69146;52.266;7.000;2023-11-19T10:35:07;12.00;99.90
47616;DHT22;69146;52.266;7.000;2023-11-19T10:37:51;12.00;99.90
47616;DHT22;69146;52.266;7.000;2023-11-19T10:40:39;12.00;99.90
47616;DHT22;69146;52.266;7.000;2023-11-19T10:43:27;12.10;99.90
47616;DHT22;69146;52.266;7.000;2023-11-19T10:46:12;12.20;99.90
47616;DHT22;69146;52.266;7.000;2023-11-19T10:48:58;12.10;99.90
47616;DHT22;69146;52.266;7.000;2023-11-19T10:51:43;12.20;99.90
47616;DHT22;69146;52.266;7.000;2023-11-19T10:54:29;12.20;99.90
47616;DHT22;69146;52.266;7.000;2023-11-19T10:57:15;12.30;99.90
47616;DHT22;69146;52.266;7.000;2023-11-19T11:00:04;12.30;99.90
47616;DHT22;69146;52.266;7.000;2023-11-19T11:02:59;12.30;99.90
47616;DHT22;69146;52.266;7.000;2023-11-19T11:05:46;12.30;99.90
47616;DHT22;69146;52.266;7.000;2023-11-19T11:08:31;12.40;99.90
47616;DHT22;69146;52.266;7.000;2023-11-19T11:11:16;12.40;99.90
47616;DHT22;69146;52.266;7.000;2023-11-19T11:14:02;12.40;99.90
47616;DHT22;69146;52.266;7.000;2023-11-19T11:16:47;12.40;99.90
47616;DHT22;69146;52.266;7.000;2023-11-19T11:19:32;12.40;99.90
47616;DHT22;69146;52.266;7.000;2023-11-19T11:22:19;12.50;99.90
47616;DHT22;69146;52.266;7.000;2023-11-19T11:25:18;12.50;99.90
47616;DHT22;69146;52.266;7.000;2023-11-19T11:28:07;12.40;99.90
47616;DHT22;69146;52.266;7.000;2023-11-19T11:30:58;12.40;99.90
47616;DHT22;69146;52.266;7.000;2023-11-19T11:33:54;12.40;99.90
47616;DHT22;69146;52.266;7.000;2023-11-19T11:36:43;12.50;99.90
47616;DHT22;69146;52.266;7.000;2023-11-19T11:39:34;12.40;99.90
47616;DHT22;69146;52.266;7.000;2023-11-19T11:42:32;12.40;99.90
47616;DHT22;69146;52.266;7.000;2023-11-19T11:45:16;12.50;99.90
47616;DHT22;69146;52.266;7.000;2023-11-19T11:51:00;12.50;99.90
47616;DHT22;69146;52.266;7.000;2023-11-19T11:53:45;12.50;99.90
47616;DHT22;69146;52.266;7.000;2023-11-19T11:56:34;12.50;99.90
47616;DHT22;69146;52.266;7.000;2023-11-19T11:59:21;12.50;99.90
47616;DHT22;69146;52.266;7.000;2023-11-19T12:02:09;12.50;99.90
47616;DHT22;69146;52.266;7.000;2023-11-19T12:04:54;12.50;99.90
47616;DHT22;69146;52.266;7.000;2023-11-19T12:07:39;12.60;99.90
47616;DHT22;69146;52.266;7.000;2023-11-19T12:10:26;12.60;99.90
47616;DHT22;69146;52.266;7.000;2023-11-19T12:13:12;12.60;99.90
47616;DHT22;69146;52.266;7.000;2023-11-19T12:16:09;12.60;99.90
47616;DHT22;69146;52.266;7.000;2023-11-19T12:18:55;12.60;99.90
47616;DHT22;69146;52.266;7.000;2023-11-19T12:21:40;12.50;99.90
47616;DHT22;69146;52.266;7.000;2023-11-19T12:24:25;12.40;99.90
47616;DHT22;69146;52.266;7.000;2023-11-19T12:27:09;12.30;99.90
47616;DHT22;69146;52.266;7.000;2023-11-19T12:29:56;12.20;99.90
47616;DHT22;69146;52.266;7.000;2023-11-19T12:32:41;12.10;99.90
47616;DHT22;69146;52.266;7.000;2023-11-19T12:35:26;12.10;99.90
47616;DHT22;69146;52.266;7.000;2023-11-19T12:38:19;12.10;99.90
47616;DHT22;69146;52.266;7.000;2023-11-19T12:41:05;12.20;99.90
47616;DHT22;69146;52.266;7.000;2023-11-19T12:43:50;12.30;99.90
47616;DHT22;69146;52.266;7.000;2023-11-19T12:46:36;12.30;99.90
47616;DHT22;69146;52.266;7.000;2023-11-19T12:49:20;12.40;99.90
47616;DHT22;69146;52.266;7.000;2023-11-19T12:52:11;12.40;99.90
47616;DHT22;69146;52.266;7.000;2023-11-19T12:54:58;12.50;99.90
47616;DHT22;69146;52.266;7.000;2023-11-19T12:57:45;12.60;99.90
47616;DHT22;69146;52.266;7.000;2023-11-19T13:00:35;12.70;99.90
47616;DHT22;69146;52.266;7.000;2023-11-19T13:03:30;12.70;99.90
47616;DHT22;69146;52.266;7.000;2023-11-19T13:06:16;12.70;99.90
47616;DHT22;69146;52.266;7.000;2023-11-19T13:09:01;12.70;99.90
47616;DHT22;69146;52.266;7.000;2023-11-19T13:11:49;12.70;99.90
47616;DHT22;69146;52.266;7.000;2023-11-19T13:14:37;12.60;99.90
47616;DHT22;69146;52.266;7.000;2023-11-19T13:17:22;12.60;99.90
47616;DHT22;69146;52.266;7.000;2023-11-19T13:20:08;12.60;99.90
47616;DHT22;69146;52.266;7.000;2023-11-19T13:22:55;12.50;99.90
47616;DHT22;69146;52.266;7.000;2023-11-19T13:25:39;12.50;99.90
47616;DHT22;69146;52.266;7.000;2023-11-19T13:28:24;12.50;99.90
47616;DHT22;69146;52.266;7.000;2023-11-19T13:31:23;12.50;99.90
47616;DHT22;69146;52.266;7.000;2023-11-19T13:34:08;12.50;99.90
47616;DHT22;69146;52.266;7.000;2023-11-19T13:40:13;12.50;99.90
47616;DHT22;69146;52.266;7.000;2023-11-19T13:42:59;12.40;99.90
47616;DHT22;69146;52.266;7.000;2023-11-19T13:45:43;12.20;99.90
47616;DHT22;69146;52.266;7.000;2023-11-19T13:48:28;12.10;99.90
47616;DHT22;69146;52.266;7.000;2023-11-19T13:51:15;12.00;99.90
47616;DHT22;69146;52.266;7.000;2023-11-19T13:53:59;12.00;99.90
47616;DHT22;69146;52.266;7.000;2023-11-19T13:56:45;12.00;99.90
47616;DHT22;69146;52.266;7.000;2023-11-19T13:59:31;12.10;99.90
47616;DHT22;69146;52.266;7.000;2023-11-19T14:02:18;12.10;99.90
47616;DHT22;69146;52.266;7.000;2023-11-19T14:05:03;12.10;99.90
47616;DHT22;69146;52.266;7.000;2023-11-19T14:07:47;12.10;99.90
47616;DHT22;69146;52.266;7.000;2023-11-19T14:10:32;12.20;99.90
47616;DHT22;69146;52.266;7.000;2023-11-19T14:13:18;12.20;99.90
47616;DHT22;69146;52.266;7.000;2023-11-19T14:16:02;12.20;99.90
47616;DHT22;69146;52.266;7.000;2023-11-19T14:18:47;12.20;99.90
47616;DHT22;69146;52.266;7.000;2023-11-19T14:21:33;12.20;99.90
47616;DHT22;69146;52.266;7.000;2023-11-19T14:24:17;12.10;99.90
47616;DHT22;69146;52.266;7.000;2023-11-19T14:27:02;12.10;99.90
47616;DHT22;69146;52.266;7.000;2023-11-19T14:29:48;12.20;99.90
47616;DHT22;69146;52.266;7.000;2023-11-19T14:32:32;12.20;99.90
47616;DHT22;69146;52.266;7.000;2023-11-19T14:35:16;12.10;99.90
47616;DHT22;69146;52.266;7.000;2023-11-19T14:38:01;12.20;99.90
47616;DHT22;69146;52.266;7.000;2023-11-19T14:40:49;12.20;99.90
47616;DHT22;69146;52.266;7.000;2023-11-19T14:43:33;12.10;99.90
47616;DHT22;69146;52.266;7.000;2023-11-19T14:46:19;12.10;99.90
47616;DHT22;69146;52.266;7.000;2023-11-19T14:49:04;12.10;99.90
47616;DHT22;69146;52.266;7.000;2023-11-19T14:51:48;12.00;99.90
47616;DHT22;69146;52.266;7.000;2023-11-19T14:54:33;11.90;99.90
47616;DHT22;69146;52.266;7.000;2023-11-19T14:57:18;11.90;99.90
47616;DHT22;69146;52.266;7.000;2023-11-19T15:00:02;11.80;99.90
47616;DHT22;69146;52.266;7.000;2023-11-19T15:02:54;11.70;99.90
47616;DHT22;69146;52.266;7.000;2023-11-19T15:05:39;11.70;99.90
47616;DHT22;69146;52.266;7.000;2023-11-19T15:08:23;11.70;99.90
47616;DHT22;69146;52.266;7.000;2023-11-19T15:11:07;11.70;99.90
47616;DHT22;69146;52.266;7.000;2023-11-19T15:13:53;11.60;99.90
47616;DHT22;69146;52.266;7.000;2023-11-19T15:16:37;11.70;99.90
47616;DHT22;69146;52.266;7.000;2023-11-19T15:19:23;11.70;99.90
47616;DHT22;69146;52.266;7.000;2023-11-19T15:22:07;11.60;99.90
47616;DHT22;69146;52.266;7.000;2023-11-19T15:24:55;11.60;99.90
47616;DHT22;69146;52.266;7.000;2023-11-19T15:27:40;11.60;99.90
47616;DHT22;69146;52.266;7.000;2023-11-19T15:30:24;11.50;99.90
47616;DHT22;69146;52.266;7.000;2023-11-19T15:33:10;11.40;99.90
47616;DHT22;69146;52.266;7.000;2023-11-19T15:35:56;11.30;99.90
47616;DHT22;69146;52.266;7.000;2023-11-19T15:38:40;11.20;99.90
47616;DHT22;69146;52.266;7.000;2023-11-19T15:41:25;11.20;99.90
47616;DHT22;69146;52.266;7.000;2023-11-19T15:44:11;11.10;99.90
47616;DHT22;69146;52.266;7.000;2023-11-19T15:46:55;11.10;99.90
47616;DHT22;69146;52.266;7.000;2023-11-19T15:49:40;11.00;99.90
47616;DHT22;69146;52.266;7.000;2023-11-19T15:52:26;11.00;99.90
47616;DHT22;69146;52.266;7.000;2023-11-19T15:55:11;11.00;99.90
47616;DHT22;69146;52.266;7.000;2023-11-19T15:57:58;10.90;99.90
47616;DHT22;69146;52.266;7.000;2023-11-19T16:00:43;11.00;99.90
47616;DHT22;69146;52.266;7.000;2023-11-19T16:03:31;11.00;99.90
47616;DHT22;69146;52.266;7.000;2023-11-19T16:06:17;10.90;99.90
47616;DHT22;69146;52.266;7.000;2023-11-19T16:09:03;10.90;99.90
47616;DHT22;69146;52.266;7.000;2023-11-19T16:11:48;10.90;99.90
47616;DHT22;69146;52.266;7.000;2023-11-19T16:14:33;10.90;99.90
47616;DHT22;69146;52.266;7.000;2023-11-19T16:17:19;10.90;99.90
47616;DHT22;69146;52.266;7.000;2023-11-19T16:20:04;10.80;99.90
47616;DHT22;69146;52.266;7.000;2023-11-19T16:22:50;10.80;99.90
47616;DHT22;69146;52.266;7.000;2023-11-19T16:25:36;10.80;99.90
47616;DHT22;69146;52.266;7.000;2023-11-19T16:28:23;10.90;99.90
47616;DHT22;69146;52.266;7.000;2023-11-19T16:31:09;10.90;99.90
47616;DHT22;69146;52.266;7.000;2023-11-19T16:33:54;10.80;99.90
47616;DHT22;69146;52.266;7.000;2023-11-19T16:36:39;10.80;99.90
47616;DHT22;69146;52.266;7.000;2023-11-19T16:39:23;10.80;99.90
47616;DHT22;69146;52.266;7.000;2023-11-19T16:42:09;10.80;99.90
47616;DHT22;69146;52.266;7.000;2023-11-19T16:44:54;10.80;99.90
47616;DHT22;69146;52.266;7.000;2023-11-19T16:47:38;10.80;99.90
47616;DHT22;69146;52.266;7.000;2023-11-19T16:50:22;10.70;99.90
47616;DHT22;69146;52.266;7.000;2023-11-19T16:53:07;10.80;99.90
47616;DHT22;69146;52.266;7.000;2023-11-19T16:55:51;10.80;99.90
47616;DHT22;69146;52.266;7.000;2023-11-19T16:58:38;10.80;99.90
47616;DHT22;69146;52.266;7.000;2023-11-19T17:01:25;10.80;99.90
47616;DHT22;69146;52.266;7.000;2023-11-19T17:04:09;10.80;99.90
47616;DHT22;69146;52.266;7.000;2023-11-19T17:06:55;10.80;99.90
47616;DHT22;69146;52.266;7.000;2023-11-19T17:09:40;10.80;99.90
47616;DHT22;69146;52.266;7.000;2023-11-19T17:12:26;10.80;99.90
47616;DHT22;69146;52.266;7.000;2023-11-19T17:15:13;10.80;99.90
47616;DHT22;69146;52.266;7.000;2023-11-19T17:17:57;10.90;99.90
47616;DHT22;69146;52.266;7.000;2023-11-19T17:20:42;10.90;99.90
47616;DHT22;69146;52.266;7.000;2023-11-19T17:23:28;10.90;99.90
47616;DHT22;69146;52.266;7.000;2023-11-19T17:26:13;10.90;99.90
47616;DHT22;69146;52.266;7.000;2023-11-19T17:28:57;10.90;99.90
47616;DHT22;69146;52.266;7.000;2023-11-19T17:31:43;10.90;99.90
47616;DHT22;69146;52.266;7.000;2023-11-19T17:34:30;10.90;99.90